createdAt,value
2023-05-22T00:02:06.822Z,100173.50
2023-05-22T00:04:33.842Z,100166.69
2023-05-22T00:07:00.529Z,100173.69
2023-05-22T00:09:27.201Z,100171.34
2023-05-22T00:11:53.900Z,100167.94
2023-05-22T00:14:20.591Z,100171.41
2023-05-22T00:16:48.536Z,100172.47
2023-05-22T00:19:16.783Z,100164.81
2023-05-22T00:21:44.130Z,100166.34
2023-05-22T00:24:10.824Z,100154.72
2023-05-22T00:26:37.449Z,100155.09
2023-05-22T00:29:06.005Z,100160.97
2023-05-22T00:31:32.817Z,100156.22
2023-05-22T00:33:59.623Z,100151.16
2023-05-22T00:36:26.592Z,100147.88
2023-05-22T00:38:53.181Z,100156.31
2023-05-22T00:41:19.979Z,100151.72
2023-05-22T00:43:47.559Z,100147.03
2023-05-22T00:46:14.448Z,100155.56
2023-05-22T00:48:41.152Z,100151.25
2023-05-22T00:51:08.639Z,100150.09
2023-05-22T00:53:35.732Z,100154.84
2023-05-22T00:56:03.525Z,100160.69
2023-05-22T00:58:30.613Z,100151.19
2023-05-22T01:00:57.521Z,100154.53
2023-05-22T01:03:27.043Z,100155.19
2023-05-22T01:05:55.085Z,100157.66
2023-05-22T01:08:22.014Z,100148.81
2023-05-22T01:10:56.636Z,100156.03
2023-05-22T01:13:42.962Z,100160.34
2023-05-22T01:16:29.908Z,100166.19
2023-05-22T01:19:19.744Z,100166.31
2023-05-22T01:22:35.784Z,100172.78
2023-05-22T01:25:33.374Z,100165.75
2023-05-22T01:28:11.225Z,100170.41
2023-05-22T01:30:46.884Z,100170.91
2023-05-22T01:33:16.327Z,100166.19
2023-05-22T01:35:46.406Z,100167.06
2023-05-22T01:38:13.554Z,100167.44
2023-05-22T01:40:40.768Z,100171.66
2023-05-22T01:43:08.484Z,100171.53
2023-05-22T01:45:35.197Z,100164.97
2023-05-22T01:48:01.884Z,100168.81
2023-05-22T01:50:28.956Z,100163.34
2023-05-22T01:53:26.885Z,100168.81
2023-05-22T01:56:07.958Z,100164.09
2023-05-22T01:58:43.215Z,100167.06
2023-05-22T02:01:12.403Z,100175.69
2023-05-22T02:03:40.245Z,100172.91
2023-05-22T02:06:10.203Z,100170.00
2023-05-22T02:08:39.485Z,100161.31
2023-05-22T02:11:08.658Z,100162.38
2023-05-22T02:13:36.194Z,100163.72
2023-05-22T02:16:04.093Z,100166.75
2023-05-22T02:18:31.530Z,100161.13
2023-05-22T02:20:59.373Z,100163.41
2023-05-22T02:23:29.262Z,100171.91
2023-05-22T02:25:56.102Z,100167.72
2023-05-22T02:28:22.682Z,100167.22
2023-05-22T02:30:49.473Z,100168.28
2023-05-22T02:33:18.024Z,100159.13
2023-05-22T02:35:45.593Z,100160.47
2023-05-22T02:38:12.902Z,100161.78
2023-05-22T02:40:40.291Z,100157.50
2023-05-22T02:43:07.477Z,100154.59
2023-05-22T02:45:34.196Z,100158.69
2023-05-22T02:48:03.887Z,100163.31
2023-05-22T02:50:30.960Z,100155.69
2023-05-22T02:52:57.968Z,100160.13
2023-05-22T02:55:24.686Z,100162.03
2023-05-22T02:57:51.291Z,100168.81
2023-05-22T03:00:18.652Z,100174.13
2023-05-22T03:02:45.334Z,100166.03
2023-05-22T03:05:17.428Z,100165.28
2023-05-22T03:07:46.724Z,100160.00
2023-05-22T03:10:15.221Z,100167.41
2023-05-22T03:12:42.215Z,100169.56
2023-05-22T03:15:09.678Z,100168.13
2023-05-22T03:17:36.374Z,100162.84
2023-05-22T03:20:05.064Z,100165.88
2023-05-22T03:22:31.699Z,100173.28
2023-05-22T03:24:58.833Z,100172.63
2023-05-22T03:27:25.479Z,100179.75
2023-05-22T03:29:52.640Z,100179.66
2023-05-22T03:32:19.298Z,100174.72
2023-05-22T03:34:46.200Z,100179.66
2023-05-22T03:37:13.056Z,100180.59
2023-05-22T03:39:39.867Z,100181.59
2023-05-22T03:42:06.460Z,100177.03
2023-05-22T03:44:32.970Z,100176.97
2023-05-22T03:46:59.609Z,100173.00
2023-05-22T03:49:26.181Z,100181.19
2023-05-22T03:51:52.762Z,100164.72
2023-05-22T03:54:19.643Z,100164.44
2023-05-22T03:56:46.250Z,100165.94
2023-05-22T03:59:12.857Z,100163.66
2023-05-22T04:01:39.434Z,100165.03
2023-05-22T04:04:06.250Z,100168.19
2023-05-22T04:06:33.082Z,100163.25
2023-05-22T04:09:00.872Z,100168.22
2023-05-22T04:11:30.379Z,100169.34
2023-05-22T04:13:57.040Z,100168.44
2023-05-22T04:16:24.038Z,100173.13
2023-05-22T04:18:50.925Z,100169.69
2023-05-22T04:21:19.098Z,100176.78
2023-05-22T04:23:45.709Z,100169.91
2023-05-22T04:26:12.502Z,100181.53
2023-05-22T04:28:39.394Z,100175.19
2023-05-22T04:31:06.792Z,100178.09
2023-05-22T04:33:34.567Z,100175.94
2023-05-22T04:36:02.500Z,100170.41
2023-05-22T04:38:30.286Z,100178.72
2023-05-22T04:40:58.351Z,100185.19
2023-05-22T04:43:26.707Z,100181.31
2023-05-22T04:45:54.152Z,100187.47
2023-05-22T04:48:21.213Z,100193.59
2023-05-22T04:50:49.001Z,100193.25
2023-05-22T04:53:15.953Z,100194.78
2023-05-22T04:55:42.634Z,100195.34
2023-05-22T04:58:09.399Z,100191.53
2023-05-22T05:00:36.116Z,100193.66
2023-05-22T05:03:04.102Z,100190.22
2023-05-22T05:05:30.848Z,100189.47
2023-05-22T05:07:57.462Z,100199.28
2023-05-22T05:10:24.125Z,100193.59
2023-05-22T05:12:50.828Z,100196.81
2023-05-22T05:15:17.434Z,100198.22
2023-05-22T05:17:44.500Z,100197.56
2023-05-22T05:20:14.917Z,100202.53
2023-05-22T05:22:43.774Z,100205.03
2023-05-22T05:25:11.696Z,100208.13
2023-05-22T05:27:38.585Z,100209.34
2023-05-22T05:30:05.960Z,100210.88
2023-05-22T05:32:32.702Z,100209.66
2023-05-22T05:34:59.315Z,100210.69
2023-05-22T05:37:26.085Z,100209.94
2023-05-22T05:39:52.703Z,100211.63
2023-05-22T05:42:19.367Z,100209.94
2023-05-22T05:44:46.530Z,100211.91
2023-05-22T05:47:13.926Z,100214.59
2023-05-22T05:49:40.818Z,100217.63
2023-05-22T05:52:08.037Z,100210.88
2023-05-22T05:54:34.781Z,100214.03
2023-05-22T05:57:01.460Z,100216.75
2023-05-22T05:59:28.121Z,100224.28
2023-05-22T06:01:54.713Z,100227.09
2023-05-22T06:04:21.766Z,100219.88
2023-05-22T06:06:48.603Z,100221.84
2023-05-22T06:09:15.458Z,100227.00
2023-05-22T06:11:42.524Z,100233.28
2023-05-22T06:14:10.021Z,100228.16
2023-05-22T06:16:36.888Z,100222.88
2023-05-22T06:19:04.637Z,100226.03
2023-05-22T06:21:31.472Z,100231.28
2023-05-22T06:23:58.781Z,100223.38
2023-05-22T06:26:26.116Z,100227.81
2023-05-22T06:28:54.029Z,100234.00
2023-05-22T06:31:22.657Z,100227.63
2023-05-22T06:33:49.638Z,100227.66
2023-05-22T06:36:16.273Z,100229.03
2023-05-22T06:38:43.487Z,100217.50
2023-05-22T06:41:10.209Z,100223.06
2023-05-22T06:43:36.949Z,100221.63
2023-05-22T06:46:03.719Z,100231.41
2023-05-22T06:48:33.895Z,100228.78
2023-05-22T06:51:00.601Z,100231.91
2023-05-22T06:53:27.318Z,100229.09
2023-05-22T06:55:54.060Z,100235.97
2023-05-22T06:58:20.835Z,100240.53
2023-05-22T07:00:47.503Z,100237.84
2023-05-22T07:03:14.532Z,100245.34
2023-05-22T07:05:41.124Z,100237.84
2023-05-22T07:08:08.459Z,100244.47
2023-05-22T07:10:35.093Z,100246.13
2023-05-22T07:13:01.765Z,100247.00
2023-05-22T07:15:28.391Z,100246.75
2023-05-22T07:17:55.059Z,100247.25
2023-05-22T07:20:21.919Z,100244.66
2023-05-22T07:22:48.565Z,100249.41
2023-05-22T07:25:15.479Z,100250.47
2023-05-22T07:27:42.358Z,100242.94
2023-05-22T07:30:09.390Z,100242.97
2023-05-22T07:32:36.138Z,100251.41
2023-05-22T07:35:03.245Z,100240.72
2023-05-22T07:37:30.100Z,100238.75
2023-05-22T07:39:56.785Z,100235.75
2023-05-22T07:42:23.632Z,100238.28
2023-05-22T07:44:50.464Z,100244.59
2023-05-22T07:47:17.153Z,100234.63
2023-05-22T07:49:43.823Z,100239.16
2023-05-22T07:52:10.388Z,100237.66
2023-05-22T07:54:38.391Z,100239.53
2023-05-22T07:57:05.164Z,100239.28
2023-05-22T07:59:33.784Z,100242.69
2023-05-22T08:02:00.991Z,100238.06
2023-05-22T08:04:27.898Z,100240.50
2023-05-22T08:06:54.604Z,100247.63
2023-05-22T08:09:21.748Z,100240.75
2023-05-22T08:11:48.532Z,100246.84
2023-05-22T08:14:15.426Z,100239.16
2023-05-22T08:16:42.268Z,100240.97
2023-05-22T08:19:09.054Z,100238.75
2023-05-22T08:21:37.542Z,100241.53
2023-05-22T08:24:04.458Z,100244.84
2023-05-22T08:26:33.280Z,100234.84
2023-05-22T08:29:00.934Z,100242.53
2023-05-22T08:31:30.800Z,100242.03
2023-05-22T08:34:02.972Z,100232.28
2023-05-22T08:36:34.341Z,100243.75
2023-05-22T08:39:01.481Z,100229.09
2023-05-22T08:41:32.314Z,100228.88
2023-05-22T08:43:59.085Z,100230.38
2023-05-22T08:46:29.450Z,100234.72
2023-05-22T08:48:59.265Z,100227.25
2023-05-22T08:51:28.632Z,100232.88
2023-05-22T08:53:56.446Z,100222.78
2023-05-22T08:56:23.810Z,100226.59
2023-05-22T08:58:51.667Z,100221.97
2023-05-22T09:01:18.673Z,100232.31
2023-05-22T09:03:47.042Z,100234.34
2023-05-22T09:06:14.085Z,100225.84
2023-05-22T09:08:42.744Z,100221.06
2023-05-22T09:11:13.888Z,100232.03
2023-05-22T09:13:41.361Z,100229.56
2023-05-22T09:16:15.145Z,100223.16
2023-05-22T09:18:44.799Z,100225.13
2023-05-22T09:21:28.775Z,100216.22
2023-05-22T09:24:01.238Z,100221.16
2023-05-22T09:26:30.141Z,100216.72
2023-05-22T09:28:59.457Z,100214.00
2023-05-22T09:31:26.298Z,100211.78
2023-05-22T09:33:53.952Z,100210.06
2023-05-22T09:36:20.842Z,100203.28
2023-05-22T09:38:49.138Z,100212.13
2023-05-22T09:41:22.338Z,100203.34
2023-05-22T09:43:51.964Z,100199.97
2023-05-22T09:46:18.773Z,100210.84
2023-05-22T09:48:51.406Z,100211.34
2023-05-22T09:51:21.437Z,100213.72
2023-05-22T09:53:49.748Z,100206.91
2023-05-22T09:56:24.306Z,100206.59
2023-05-22T09:59:02.350Z,100206.84
2023-05-22T10:01:29.240Z,100209.91
2023-05-22T10:03:57.168Z,100210.59
2023-05-22T10:06:24.988Z,100207.66
2023-05-22T10:08:58.691Z,100207.91
2023-05-22T10:11:27.578Z,100199.88
2023-05-22T10:13:54.741Z,100208.34
2023-05-22T10:16:22.348Z,100212.88
2023-05-22T10:18:49.250Z,100204.00
2023-05-22T10:21:17.015Z,100199.38
2023-05-22T10:23:44.798Z,100201.63
2023-05-22T10:26:12.104Z,100195.91
2023-05-22T10:28:42.858Z,100195.16
2023-05-22T10:31:18.998Z,100189.84
2023-05-22T10:33:50.238Z,100195.19
2023-05-22T10:36:24.836Z,100188.09
2023-05-22T10:39:31.580Z,100186.81
2023-05-22T10:41:58.564Z,100181.22
2023-05-22T10:44:25.263Z,100179.06
2023-05-22T10:46:52.069Z,100180.59
2023-05-22T10:49:26.263Z,100175.69
2023-05-22T10:51:57.015Z,100167.63
2023-05-22T10:54:43.326Z,100173.09
2023-05-22T10:57:17.636Z,100175.66
2023-05-22T10:59:47.500Z,100180.91
2023-05-22T11:02:31.444Z,100168.16
2023-05-22T11:05:25.541Z,100163.91
2023-05-22T11:07:52.254Z,100162.94
2023-05-22T11:10:54.755Z,100162.72
2023-05-22T11:13:21.921Z,100158.88
2023-05-22T11:15:48.792Z,100162.22
2023-05-22T11:18:16.890Z,100161.94
2023-05-22T11:20:44.374Z,100153.28
2023-05-22T11:23:11.586Z,100159.78
2023-05-22T11:25:41.266Z,100151.19
2023-05-22T11:28:10.580Z,100153.84
2023-05-22T11:30:38.179Z,100153.94
2023-05-22T11:33:06.802Z,100157.78
2023-05-22T11:35:34.127Z,100152.22
2023-05-22T11:38:04.997Z,100145.13
2023-05-22T11:40:32.048Z,100149.25
2023-05-22T11:42:59.003Z,100137.31
2023-05-22T11:45:26.956Z,100137.56
2023-05-22T11:47:53.645Z,100140.19
2023-05-22T11:50:33.587Z,100145.19
2023-05-22T11:53:07.475Z,100147.38
2023-05-22T11:55:34.830Z,100135.81
2023-05-22T11:58:02.729Z,100131.25
2023-05-22T12:00:31.672Z,100135.09
2023-05-22T12:02:58.912Z,100127.16
2023-05-22T12:05:25.843Z,100117.03
2023-05-22T12:07:52.830Z,100113.72
2023-05-22T12:10:19.664Z,100115.03
2023-05-22T12:12:48.132Z,100113.81
2023-05-22T12:15:19.136Z,100106.09
2023-05-22T12:17:45.673Z,100104.91
2023-05-22T12:20:14.603Z,100103.94
2023-05-22T12:22:43.059Z,100102.13
2023-05-22T12:25:20.414Z,100107.78
2023-05-22T12:27:47.744Z,100095.19
2023-05-22T12:30:15.132Z,100089.66
2023-05-22T12:32:47.897Z,100102.16
2023-05-22T12:35:18.675Z,100089.66
2023-05-22T12:37:50.367Z,100099.28
2023-05-22T12:40:17.672Z,100099.00
2023-05-22T12:42:44.991Z,100090.31
2023-05-22T12:45:13.183Z,100094.00
2023-05-22T12:47:40.036Z,100098.88
2023-05-22T12:50:07.565Z,100095.19
2023-05-22T12:52:36.151Z,100087.81
2023-05-22T12:55:02.891Z,100088.75
2023-05-22T12:57:29.688Z,100078.75
2023-05-22T12:59:56.352Z,100086.75
2023-05-22T13:02:23.073Z,100087.84
2023-05-22T13:04:49.730Z,100090.56
2023-05-22T13:07:16.550Z,100085.41
2023-05-22T13:09:43.133Z,100090.13
2023-05-22T13:12:11.248Z,100091.00
2023-05-22T13:14:40.130Z,100086.97
2023-05-22T13:17:06.945Z,100085.53
2023-05-22T13:19:33.771Z,100081.16
2023-05-22T13:22:00.473Z,100089.47
2023-05-22T13:24:27.173Z,100079.38
2023-05-22T13:26:53.746Z,100078.06
2023-05-22T13:29:20.365Z,100080.25
2023-05-22T13:31:47.058Z,100080.84
2023-05-22T13:34:13.685Z,100067.66
2023-05-22T13:36:40.379Z,100075.59
2023-05-22T13:39:07.018Z,100072.63
2023-05-22T13:41:36.572Z,100075.41
2023-05-22T13:44:03.206Z,100077.94
2023-05-22T13:46:29.915Z,100078.38
2023-05-22T13:48:58.238Z,100079.75
2023-05-22T13:51:25.132Z,100070.97
2023-05-22T13:53:51.776Z,100071.13
2023-05-22T13:56:18.577Z,100070.47
2023-05-22T13:58:45.731Z,100063.53
2023-05-22T14:01:12.739Z,100071.78
2023-05-22T14:03:39.679Z,100063.28
2023-05-22T14:06:07.014Z,100055.66
2023-05-22T14:08:33.779Z,100061.50
2023-05-22T14:11:00.965Z,100055.47
2023-05-22T14:13:27.890Z,100054.72
2023-05-22T14:15:54.501Z,100044.69
2023-05-22T14:18:21.230Z,100042.25
2023-05-22T14:20:47.968Z,100044.03
2023-05-22T14:23:14.938Z,100041.56
2023-05-22T14:25:43.011Z,100037.88
2023-05-22T14:28:10.512Z,100036.97
2023-05-22T14:30:37.248Z,100028.88
2023-05-22T14:33:04.607Z,100030.28
2023-05-22T14:35:31.707Z,100021.72
2023-05-22T14:37:58.636Z,100022.56
2023-05-22T14:40:25.181Z,100021.63
2023-05-22T14:42:54.511Z,100021.72
2023-05-22T14:45:21.362Z,100030.25
2023-05-22T14:47:48.118Z,100027.56
2023-05-22T14:50:19.912Z,100040.63
2023-05-22T14:52:48.095Z,100032.16
2023-05-22T14:55:15.178Z,100036.50
2023-05-22T14:57:41.983Z,100037.88
2023-05-22T15:00:10.064Z,100028.72
2023-05-22T15:02:37.263Z,100036.69
2023-05-22T15:05:04.501Z,100029.84
2023-05-22T15:07:43.237Z,100036.97
2023-05-22T15:10:11.192Z,100045.41
2023-05-22T15:12:37.938Z,100037.34
2023-05-22T15:15:05.100Z,100043.19
2023-05-22T15:17:32.438Z,100046.28
2023-05-22T15:19:59.073Z,100042.88
2023-05-22T15:22:25.724Z,100039.19
2023-05-22T15:25:12.758Z,100040.19
2023-05-22T15:27:39.541Z,100040.78
2023-05-22T15:30:09.513Z,100040.69
2023-05-22T15:32:37.367Z,100055.47
2023-05-22T15:35:05.645Z,100045.28
2023-05-22T15:37:33.706Z,100036.00
2023-05-22T15:40:01.375Z,100040.22
2023-05-22T15:42:28.250Z,100045.78
2023-05-22T15:44:55.248Z,100044.47
2023-05-22T15:47:21.844Z,100049.00
2023-05-22T15:49:48.473Z,100045.69
2023-05-22T15:52:15.227Z,100048.63
2023-05-22T15:54:41.846Z,100043.94
2023-05-22T15:57:08.423Z,100046.41
2023-05-22T15:59:35.006Z,100051.59
2023-05-22T16:02:01.636Z,100048.81
2023-05-22T16:04:28.434Z,100043.59
2023-05-22T16:06:55.826Z,100065.50
2023-05-22T16:09:22.456Z,100078.84
2023-05-22T16:11:49.303Z,100077.34
2023-05-22T16:14:15.974Z,100106.25
2023-05-22T16:16:42.819Z,100113.97
2023-05-22T16:19:11.909Z,100101.50
2023-05-22T16:21:38.997Z,100110.88
2023-05-22T16:24:06.907Z,100102.56
2023-05-22T16:26:34.386Z,100111.38
2023-05-22T16:29:01.102Z,100105.00
2023-05-22T16:31:28.702Z,100106.84
2023-05-22T16:33:56.012Z,100096.78
2023-05-22T16:36:23.758Z,100097.13
2023-05-22T16:38:51.774Z,100097.69
2023-05-22T16:41:18.487Z,100106.88
2023-05-22T16:43:45.097Z,100111.38
2023-05-22T16:46:11.812Z,100111.66
2023-05-22T16:48:38.665Z,100117.59
2023-05-22T16:51:05.525Z,100129.69
2023-05-22T16:53:32.233Z,100120.44
2023-05-22T16:55:59.813Z,100142.22
2023-05-22T16:58:26.703Z,100142.06
2023-05-22T17:00:53.462Z,100135.28
2023-05-22T17:03:20.322Z,100139.78
2023-05-22T17:05:47.357Z,100129.47
2023-05-22T17:08:13.966Z,100120.22
2023-05-22T17:10:41.639Z,100129.03
2023-05-22T17:13:08.489Z,100119.41
2023-05-22T17:15:35.079Z,100125.03
2023-05-22T17:18:02.069Z,100133.78
2023-05-22T17:20:29.453Z,100143.94
2023-05-22T17:22:56.392Z,100157.50
2023-05-22T17:25:23.073Z,100166.41
2023-05-22T17:27:49.730Z,100173.25
2023-05-22T17:30:16.826Z,100174.03
2023-05-22T17:32:44.830Z,100187.44
2023-05-22T17:35:12.708Z,100205.00
2023-05-22T17:37:43.514Z,100231.19
2023-05-22T17:40:10.552Z,100250.63
2023-05-22T17:42:37.228Z,100245.72
2023-05-22T17:45:04.100Z,100245.00
2023-05-22T17:47:31.936Z,100249.50
2023-05-22T17:49:58.530Z,100258.72
2023-05-22T17:52:26.232Z,100251.34
2023-05-22T17:54:53.154Z,100253.78
2023-05-22T17:57:20.119Z,100269.50
2023-05-22T17:59:46.778Z,100265.88
2023-05-22T18:02:13.858Z,100259.41
2023-05-22T18:04:40.603Z,100258.19
2023-05-22T18:07:07.528Z,100245.69
2023-05-22T18:09:34.199Z,100243.56
2023-05-22T18:12:02.347Z,100231.09
2023-05-22T18:14:29.413Z,100225.72
2023-05-22T18:16:56.032Z,100229.53
2023-05-22T18:19:22.703Z,100222.00
2023-05-22T18:21:49.380Z,100213.34
2023-05-22T18:24:18.312Z,100223.72
2023-05-22T18:26:48.831Z,100218.28
2023-05-22T18:29:15.874Z,100207.09
2023-05-22T18:31:45.298Z,100206.34
2023-05-22T18:34:14.262Z,100196.06
2023-05-22T18:36:42.418Z,100202.53
2023-05-22T18:39:09.606Z,100193.25
2023-05-22T18:41:39.102Z,100201.53
2023-05-22T18:44:07.564Z,100207.41
2023-05-22T18:46:35.403Z,100199.56
2023-05-22T18:49:02.373Z,100215.09
2023-05-22T18:51:29.022Z,100208.81
2023-05-22T18:53:57.980Z,100216.66
2023-05-22T18:56:24.707Z,100194.06
2023-05-22T18:58:51.825Z,100210.91
2023-05-22T19:01:18.542Z,100206.97
2023-05-22T19:03:45.495Z,100206.53
2023-05-22T19:06:12.765Z,100204.56
2023-05-22T19:08:40.402Z,100203.28
2023-05-22T19:11:07.343Z,100208.44
2023-05-22T19:13:34.050Z,100198.41
2023-05-22T19:16:00.651Z,100196.66
2023-05-22T19:18:28.333Z,100186.97
2023-05-22T19:20:55.280Z,100200.81
2023-05-22T19:23:21.820Z,100201.94
2023-05-22T19:25:49.085Z,100209.34
2023-05-22T19:28:17.257Z,100205.03
2023-05-22T19:30:45.082Z,100209.94
2023-05-22T19:33:14.394Z,100205.75
2023-05-22T19:35:41.140Z,100192.56
2023-05-22T19:38:09.178Z,100209.03
2023-05-22T19:40:36.446Z,100216.88
2023-05-22T19:43:04.678Z,100208.34
2023-05-22T19:45:33.335Z,100211.81
2023-05-22T19:48:00.439Z,100217.69
2023-05-22T19:50:27.291Z,100217.59
2023-05-22T19:52:53.934Z,100217.84
2023-05-22T19:55:20.978Z,100224.34
2023-05-22T19:57:47.634Z,100218.63
2023-05-22T20:00:14.519Z,100224.78
2023-05-22T20:02:41.198Z,100221.31
2023-05-22T20:05:13.318Z,100235.06
2023-05-22T20:07:43.290Z,100235.28
2023-05-22T20:10:16.164Z,100244.34
2023-05-22T20:12:43.132Z,100236.97
2023-05-22T20:15:10.749Z,100245.56
2023-05-22T20:17:42.517Z,100246.19
2023-05-22T20:20:09.861Z,100248.75
2023-05-22T20:22:36.555Z,100245.75
2023-05-22T20:25:05.178Z,100249.00
2023-05-22T20:27:32.039Z,100250.63
2023-05-22T20:30:00.111Z,100260.13
2023-05-22T20:32:27.182Z,100263.59
2023-05-22T20:34:55.339Z,100268.47
2023-05-22T20:37:22.321Z,100272.75
2023-05-22T20:39:50.227Z,100275.78
2023-05-22T20:42:17.866Z,100282.03
2023-05-22T20:44:44.962Z,100278.78
2023-05-22T20:47:11.855Z,100276.56
2023-05-22T20:49:38.934Z,100276.75
2023-05-22T20:52:05.879Z,100277.41
2023-05-22T20:54:34.731Z,100279.25
2023-05-22T20:57:02.038Z,100279.25
2023-05-22T20:59:29.146Z,100287.69
2023-05-22T21:01:57.036Z,100288.41
2023-05-22T21:04:24.246Z,100276.53
2023-05-22T21:06:51.242Z,100287.22
2023-05-22T21:09:18.001Z,100275.25
2023-05-22T21:11:45.079Z,100275.25
2023-05-22T21:14:13.188Z,100268.19
2023-05-22T21:16:40.304Z,100268.41
2023-05-22T21:19:07.456Z,100279.75
2023-05-22T21:21:41.518Z,100283.97
2023-05-22T21:24:10.042Z,100265.72
2023-05-22T21:26:39.263Z,100276.53
2023-05-22T21:29:06.216Z,100275.69
2023-05-22T21:31:35.213Z,100281.22
2023-05-22T21:34:02.504Z,100280.91
2023-05-22T21:36:31.439Z,100283.81
2023-05-22T21:39:00.382Z,100285.31
2023-05-22T21:41:30.083Z,100274.56
2023-05-22T21:43:57.319Z,100284.72
2023-05-22T21:46:24.358Z,100289.81
2023-05-22T21:48:51.063Z,100287.56
2023-05-22T21:51:19.058Z,100296.00
2023-05-22T21:53:46.729Z,100295.00
2023-05-22T21:56:15.600Z,100290.88
2023-05-22T21:58:42.185Z,100296.50
2023-05-22T22:01:10.028Z,100293.97
2023-05-22T22:03:38.657Z,100302.81
2023-05-22T22:06:05.796Z,100303.22
2023-05-22T22:08:32.561Z,100306.59
2023-05-22T22:10:59.781Z,100306.31
2023-05-22T22:13:26.484Z,100308.72
2023-05-22T22:15:53.662Z,100303.53
2023-05-22T22:18:20.474Z,100309.41
2023-05-22T22:20:53.966Z,100306.06
2023-05-22T22:23:22.798Z,100311.16
2023-05-22T22:25:50.477Z,100303.22
2023-05-22T22:28:19.451Z,100306.06
2023-05-22T22:30:50.106Z,100308.78
2023-05-22T22:33:16.744Z,100308.56
2023-05-22T22:35:43.438Z,100318.34
2023-05-22T22:38:10.242Z,100319.16
2023-05-22T22:40:37.173Z,100328.03
2023-05-22T22:43:03.890Z,100324.56
2023-05-22T22:45:30.723Z,100328.59
2023-05-22T22:47:57.394Z,100324.50
2023-05-22T22:50:24.488Z,100328.84
2023-05-22T22:52:51.188Z,100335.84
2023-05-22T22:55:18.292Z,100324.72
2023-05-22T22:57:48.000Z,100334.09
2023-05-22T23:00:16.053Z,100329.69
2023-05-22T23:02:43.349Z,100340.81
2023-05-22T23:05:10.930Z,100348.50
2023-05-22T23:07:38.111Z,100340.72
2023-05-22T23:10:05.111Z,100340.81
2023-05-22T23:12:35.107Z,100348.59
2023-05-22T23:15:02.926Z,100352.72
2023-05-22T23:17:30.560Z,100357.47
2023-05-22T23:19:57.280Z,100355.19
2023-05-22T23:22:24.144Z,100349.91
2023-05-22T23:24:51.242Z,100351.72
2023-05-22T23:27:18.368Z,100356.38
2023-05-22T23:29:45.147Z,100354.66
2023-05-22T23:32:14.428Z,100354.88
2023-05-22T23:34:42.413Z,100352.28
2023-05-22T23:37:09.775Z,100352.59
2023-05-22T23:39:36.398Z,100355.41
2023-05-22T23:42:03.251Z,100365.25
2023-05-22T23:44:30.761Z,100351.63
2023-05-22T23:46:57.743Z,100355.63
2023-05-22T23:49:24.487Z,100358.31
2023-05-22T23:51:51.174Z,100362.09
2023-05-22T23:54:18.296Z,100360.28
2023-05-22T23:56:45.201Z,100362.88
2023-05-22T23:59:12.034Z,100358.44
